Hicks, Louisiana
Current Conditions -  °F | °C
As of 1:58 PM on Thursday 29 Jan 2015 (Local Time) from KPOE Reporting Station
Scattered Clouds Scattered Clouds  
Wind Chill: 73°   Ceiling: Unl
Heat Index: 73°   Visibility: 10mi
Dew Point: 55°   Wind: 7mph
Humidity: 53%   Direction: 250°WSW
Pressure: 30.17"   Gusts: NA
Location:  31.2063°N, 93.1344°W
Report Text: KPOE 291958Z AUTO 25006KT 10SM SCT120 23/13 A3017 RMK AO2 SLP217 T02290128
Loading
Personal Weather Stations






























Interactive Weather Map New forecast layout! Learn more

10-Day Weather Forecast

Advertisements
Track Severe Weather on mobile